Terminal Aerodrome Forecast
Issued by NWS Newport/Morehead City, NC

Home | Current Version | Previous Version | Text Only | Print | Product List | Glossary On
Versions: 1 2 3 4 5 6 7 8 9 10 11 12 13 14 15 16 17 18 19 20 21
519
FTUS42 KMHX 240632 AAA
TAFEWN
TAF AMD
KEWN 240632Z 2407/2506 22005KT P6SM BKN020 OVC040
     FM241800 20010KT 6SM SHRA OVC040
     FM250200 19010KT 4SM SHRA OVC015=

USA.gov is the U.S. government's official web portal to all federal, state and local government web resources and services.